sensor_id;sensor_type;location;lat;lon;timestamp;P1;durP1;ratioP1;P2;durP2;ratioP2
7017;SDS011;3549;42.162;24.726;2023-04-03T00:01:22;4.27;;;2.40;;
7017;SDS011;3549;42.162;24.726;2023-04-03T00:03:47;3.60;;;2.60;;
7017;SDS011;3549;42.162;24.726;2023-04-03T00:06:13;5.10;;;2.67;;
7017;SDS011;3549;42.162;24.726;2023-04-03T00:08:39;3.83;;;2.30;;
7017;SDS011;3549;42.162;24.726;2023-04-03T00:11:05;5.03;;;2.87;;
7017;SDS011;3549;42.162;24.726;2023-04-03T00:13:31;4.67;;;2.83;;
7017;SDS011;3549;42.162;24.726;2023-04-03T00:15:57;4.97;;;2.80;;
7017;SDS011;3549;42.162;24.726;2023-04-03T00:18:22;5.07;;;2.70;;
7017;SDS011;3549;42.162;24.726;2023-04-03T00:20:48;3.63;;;2.47;;
7017;SDS011;3549;42.162;24.726;2023-04-03T00:23:13;3.83;;;2.40;;
7017;SDS011;3549;42.162;24.726;2023-04-03T00:25:39;4.63;;;2.70;;
7017;SDS011;3549;42.162;24.726;2023-04-03T00:28:05;3.80;;;2.57;;
7017;SDS011;3549;42.162;24.726;2023-04-03T00:30:31;4.20;;;2.70;;
7017;SDS011;3549;42.162;24.726;2023-04-03T00:32:56;3.93;;;2.50;;
7017;SDS011;3549;42.162;24.726;2023-04-03T00:35:22;4.13;;;2.40;;
7017;SDS011;3549;42.162;24.726;2023-04-03T00:37:50;3.77;;;2.57;;
7017;SDS011;3549;42.162;24.726;2023-04-03T00:40:16;4.13;;;2.50;;
7017;SDS011;3549;42.162;24.726;2023-04-03T00:42:42;5.33;;;2.80;;
7017;SDS011;3549;42.162;24.726;2023-04-03T00:47:40;4.27;;;2.77;;
7017;SDS011;3549;42.162;24.726;2023-04-03T00:50:06;3.70;;;2.60;;
7017;SDS011;3549;42.162;24.726;2023-04-03T00:52:32;3.63;;;2.57;;
7017;SDS011;3549;42.162;24.726;2023-04-03T00:54:59;3.63;;;2.50;;
7017;SDS011;3549;42.162;24.726;2023-04-03T00:57:27;4.77;;;2.80;;
7017;SDS011;3549;42.162;24.726;2023-04-03T00:59:57;5.53;;;2.70;;
7017;SDS011;3549;42.162;24.726;2023-04-03T01:02:31;3.90;;;2.70;;
7017;SDS011;3549;42.162;24.726;2023-04-03T01:04:56;5.17;;;2.53;;
7017;SDS011;3549;42.162;24.726;2023-04-03T01:07:23;5.97;;;2.80;;
7017;SDS011;3549;42.162;24.726;2023-04-03T01:09:53;3.50;;;2.70;;
7017;SDS011;3549;42.162;24.726;2023-04-03T01:12:23;6.97;;;2.63;;
7017;SDS011;3549;42.162;24.726;2023-04-03T01:14:56;4.57;;;2.80;;
7017;SDS011;3549;42.162;24.726;2023-04-03T01:17:42;4.77;;;2.73;;
7017;SDS011;3549;42.162;24.726;2023-04-03T01:25:14;5.10;;;2.70;;
7017;SDS011;3549;42.162;24.726;2023-04-03T01:27:40;4.20;;;2.63;;
7017;SDS011;3549;42.162;24.726;2023-04-03T01:30:05;3.57;;;2.30;;
7017;SDS011;3549;42.162;24.726;2023-04-03T01:32:31;4.43;;;2.50;;
7017;SDS011;3549;42.162;24.726;2023-04-03T01:34:57;3.03;;;2.30;;
7017;SDS011;3549;42.162;24.726;2023-04-03T01:37:22;4.20;;;2.50;;
7017;SDS011;3549;42.162;24.726;2023-04-03T01:39:48;3.27;;;2.40;;
7017;SDS011;3549;42.162;24.726;2023-04-03T01:42:13;4.03;;;2.67;;
7017;SDS011;3549;42.162;24.726;2023-04-03T01:44:38;3.93;;;2.53;;
7017;SDS011;3549;42.162;24.726;2023-04-03T01:47:05;7.17;;;4.07;;
7017;SDS011;3549;42.162;24.726;2023-04-03T01:49:31;7.97;;;3.93;;
7017;SDS011;3549;42.162;24.726;2023-04-03T01:51:56;5.43;;;3.23;;
7017;SDS011;3549;42.162;24.726;2023-04-03T01:54:22;7.50;;;3.63;;
7017;SDS011;3549;42.162;24.726;2023-04-03T01:56:47;5.27;;;3.27;;
7017;SDS011;3549;42.162;24.726;2023-04-03T01:59:13;6.70;;;3.57;;
7017;SDS011;3549;42.162;24.726;2023-04-03T02:01:38;4.43;;;2.83;;
7017;SDS011;3549;42.162;24.726;2023-04-03T02:04:04;6.47;;;3.10;;
7017;SDS011;3549;42.162;24.726;2023-04-03T02:06:29;4.33;;;2.97;;
7017;SDS011;3549;42.162;24.726;2023-04-03T02:08:55;4.23;;;2.90;;
7017;SDS011;3549;42.162;24.726;2023-04-03T02:11:20;4.73;;;2.97;;
7017;SDS011;3549;42.162;24.726;2023-04-03T02:13:45;5.93;;;3.50;;
7017;SDS011;3549;42.162;24.726;2023-04-03T02:16:11;7.53;;;3.70;;
7017;SDS011;3549;42.162;24.726;2023-04-03T02:18:38;5.60;;;3.77;;
7017;SDS011;3549;42.162;24.726;2023-04-03T02:21:04;6.47;;;4.00;;
7017;SDS011;3549;42.162;24.726;2023-04-03T02:23:29;8.30;;;5.00;;
7017;SDS011;3549;42.162;24.726;2023-04-03T02:26:09;10.47;;;6.80;;
7017;SDS011;3549;42.162;24.726;2023-04-03T02:28:36;11.07;;;5.53;;
7017;SDS011;3549;42.162;24.726;2023-04-03T02:31:02;9.80;;;5.20;;
7017;SDS011;3549;42.162;24.726;2023-04-03T02:33:28;9.93;;;6.33;;
7017;SDS011;3549;42.162;24.726;2023-04-03T02:35:54;12.50;;;6.70;;
7017;SDS011;3549;42.162;24.726;2023-04-03T02:38:20;11.67;;;6.87;;
7017;SDS011;3549;42.162;24.726;2023-04-03T02:40:46;14.50;;;6.80;;
7017;SDS011;3549;42.162;24.726;2023-04-03T02:43:12;12.50;;;6.53;;
7017;SDS011;3549;42.162;24.726;2023-04-03T02:45:37;9.47;;;6.30;;
7017;SDS011;3549;42.162;24.726;2023-04-03T02:48:03;12.50;;;6.50;;
7017;SDS011;3549;42.162;24.726;2023-04-03T02:50:28;11.53;;;6.50;;
7017;SDS011;3549;42.162;24.726;2023-04-03T02:52:54;10.77;;;6.40;;
7017;SDS011;3549;42.162;24.726;2023-04-03T02:55:20;9.57;;;6.23;;
7017;SDS011;3549;42.162;24.726;2023-04-03T02:57:45;12.10;;;6.60;;
7017;SDS011;3549;42.162;24.726;2023-04-03T03:00:11;11.47;;;6.50;;
7017;SDS011;3549;42.162;24.726;2023-04-03T03:02:36;10.80;;;6.40;;
7017;SDS011;3549;42.162;24.726;2023-04-03T03:05:02;13.83;;;7.10;;
7017;SDS011;3549;42.162;24.726;2023-04-03T03:07:28;12.27;;;6.90;;
7017;SDS011;3549;42.162;24.726;2023-04-03T03:09:53;16.00;;;6.90;;
7017;SDS011;3549;42.162;24.726;2023-04-03T03:12:19;11.70;;;6.83;;
7017;SDS011;3549;42.162;24.726;2023-04-03T03:14:46;9.40;;;5.97;;
7017;SDS011;3549;42.162;24.726;2023-04-03T03:17:15;9.37;;;5.40;;
7017;SDS011;3549;42.162;24.726;2023-04-03T03:19:41;6.97;;;4.30;;
7017;SDS011;3549;42.162;24.726;2023-04-03T03:22:07;5.90;;;3.70;;
7017;SDS011;3549;42.162;24.726;2023-04-03T03:24:32;7.30;;;3.87;;
7017;SDS011;3549;42.162;24.726;2023-04-03T03:26:57;5.87;;;3.90;;
7017;SDS011;3549;42.162;24.726;2023-04-03T03:29:23;6.57;;;3.57;;
7017;SDS011;3549;42.162;24.726;2023-04-03T03:31:48;6.80;;;3.83;;
7017;SDS011;3549;42.162;24.726;2023-04-03T03:34:14;7.70;;;3.83;;
7017;SDS011;3549;42.162;24.726;2023-04-03T03:36:39;7.13;;;3.80;;
7017;SDS011;3549;42.162;24.726;2023-04-03T03:39:05;8.13;;;4.37;;
7017;SDS011;3549;42.162;24.726;2023-04-03T03:41:31;8.20;;;4.50;;
7017;SDS011;3549;42.162;24.726;2023-04-03T03:43:56;6.53;;;4.03;;
7017;SDS011;3549;42.162;24.726;2023-04-03T03:46:22;5.60;;;3.87;;
7017;SDS011;3549;42.162;24.726;2023-04-03T03:48:47;8.87;;;4.33;;
7017;SDS011;3549;42.162;24.726;2023-04-03T03:51:13;10.17;;;4.30;;
7017;SDS011;3549;42.162;24.726;2023-04-03T03:53:38;7.17;;;4.17;;
7017;SDS011;3549;42.162;24.726;2023-04-03T03:56:04;8.80;;;4.47;;
7017;SDS011;3549;42.162;24.726;2023-04-03T03:58:29;9.33;;;4.73;;
7017;SDS011;3549;42.162;24.726;2023-04-03T04:00:55;8.60;;;4.70;;
7017;SDS011;3549;42.162;24.726;2023-04-03T04:03:20;10.47;;;5.70;;
7017;SDS011;3549;42.162;24.726;2023-04-03T04:05:46;10.03;;;4.83;;
7017;SDS011;3549;42.162;24.726;2023-04-03T04:08:11;12.77;;;5.60;;
7017;SDS011;3549;42.162;24.726;2023-04-03T04:10:37;10.73;;;5.33;;
7017;SDS011;3549;42.162;24.726;2023-04-03T04:13:03;8.97;;;5.50;;
7017;SDS011;3549;42.162;24.726;2023-04-03T04:15:28;11.10;;;5.93;;
7017;SDS011;3549;42.162;24.726;2023-04-03T04:17:54;8.93;;;5.47;;
7017;SDS011;3549;42.162;24.726;2023-04-03T04:20:20;9.40;;;5.57;;
7017;SDS011;3549;42.162;24.726;2023-04-03T04:22:45;12.87;;;5.63;;
7017;SDS011;3549;42.162;24.726;2023-04-03T04:25:10;14.33;;;5.67;;
7017;SDS011;3549;42.162;24.726;2023-04-03T04:27:36;11.30;;;5.83;;
7017;SDS011;3549;42.162;24.726;2023-04-03T04:30:02;25.93;;;10.70;;
7017;SDS011;3549;42.162;24.726;2023-04-03T04:32:29;20.50;;;9.73;;
7017;SDS011;3549;42.162;24.726;2023-04-03T04:34:55;26.20;;;12.23;;
7017;SDS011;3549;42.162;24.726;2023-04-03T04:37:20;30.43;;;12.83;;
7017;SDS011;3549;42.162;24.726;2023-04-03T04:39:45;58.13;;;25.40;;
7017;SDS011;3549;42.162;24.726;2023-04-03T04:42:11;52.77;;;24.77;;
7017;SDS011;3549;42.162;24.726;2023-04-03T04:44:38;57.80;;;25.63;;
7017;SDS011;3549;42.162;24.726;2023-04-03T04:47:04;49.23;;;25.13;;
7017;SDS011;3549;42.162;24.726;2023-04-03T04:49:30;48.53;;;25.33;;
7017;SDS011;3549;42.162;24.726;2023-04-03T04:51:55;52.17;;;25.20;;
7017;SDS011;3549;42.162;24.726;2023-04-03T04:54:21;43.93;;;22.87;;
7017;SDS011;3549;42.162;24.726;2023-04-03T04:56:46;23.80;;;13.20;;
7017;SDS011;3549;42.162;24.726;2023-04-03T04:59:12;15.53;;;8.80;;
7017;SDS011;3549;42.162;24.726;2023-04-03T05:01:37;19.43;;;10.07;;
7017;SDS011;3549;42.162;24.726;2023-04-03T05:04:02;17.97;;;9.00;;
7017;SDS011;3549;42.162;24.726;2023-04-03T05:06:28;15.83;;;9.17;;
7017;SDS011;3549;42.162;24.726;2023-04-03T05:08:55;14.17;;;9.27;;
7017;SDS011;3549;42.162;24.726;2023-04-03T05:11:21;21.80;;;11.93;;
7017;SDS011;3549;42.162;24.726;2023-04-03T05:13:46;18.40;;;10.23;;
7017;SDS011;3549;42.162;24.726;2023-04-03T05:16:12;12.43;;;8.50;;
7017;SDS011;3549;42.162;24.726;2023-04-03T05:18:37;12.50;;;7.43;;
7017;SDS011;3549;42.162;24.726;2023-04-03T05:21:03;17.80;;;11.43;;
7017;SDS011;3549;42.162;24.726;2023-04-03T05:23:28;18.17;;;10.90;;
7017;SDS011;3549;42.162;24.726;2023-04-03T05:25:54;21.43;;;13.40;;
7017;SDS011;3549;42.162;24.726;2023-04-03T05:28:19;17.80;;;9.60;;
7017;SDS011;3549;42.162;24.726;2023-04-03T05:30:44;22.57;;;11.13;;
7017;SDS011;3549;42.162;24.726;2023-04-03T05:33:10;21.90;;;12.10;;
7017;SDS011;3549;42.162;24.726;2023-04-03T05:35:36;28.00;;;15.03;;
7017;SDS011;3549;42.162;24.726;2023-04-03T05:38:06;37.90;;;18.00;;
7017;SDS011;3549;42.162;24.726;2023-04-03T05:40:32;43.13;;;21.00;;
7017;SDS011;3549;42.162;24.726;2023-04-03T05:42:58;29.67;;;14.67;;
7017;SDS011;3549;42.162;24.726;2023-04-03T05:45:23;30.13;;;12.13;;
7017;SDS011;3549;42.162;24.726;2023-04-03T05:47:48;29.97;;;12.77;;
7017;SDS011;3549;42.162;24.726;2023-04-03T05:50:14;25.10;;;12.10;;
7017;SDS011;3549;42.162;24.726;2023-04-03T05:52:40;29.40;;;12.33;;
7017;SDS011;3549;42.162;24.726;2023-04-03T05:55:09;21.43;;;12.03;;
7017;SDS011;3549;42.162;24.726;2023-04-03T05:57:34;34.93;;;10.47;;
7017;SDS011;3549;42.162;24.726;2023-04-03T06:00:00;20.13;;;10.10;;
7017;SDS011;3549;42.162;24.726;2023-04-03T06:02:25;17.97;;;10.87;;
7017;SDS011;3549;42.162;24.726;2023-04-03T06:04:51;13.03;;;8.60;;
7017;SDS011;3549;42.162;24.726;2023-04-03T06:07:20;14.37;;;8.80;;
7017;SDS011;3549;42.162;24.726;2023-04-03T06:09:47;13.87;;;7.30;;
7017;SDS011;3549;42.162;24.726;2023-04-03T06:12:13;11.93;;;5.97;;
7017;SDS011;3549;42.162;24.726;2023-04-03T06:14:39;13.80;;;8.63;;
7017;SDS011;3549;42.162;24.726;2023-04-03T06:17:06;13.60;;;8.00;;
7017;SDS011;3549;42.162;24.726;2023-04-03T06:19:32;14.60;;;8.37;;
7017;SDS011;3549;42.162;24.726;2023-04-03T06:21:57;14.83;;;10.23;;
7017;SDS011;3549;42.162;24.726;2023-04-03T06:24:23;10.83;;;7.60;;
7017;SDS011;3549;42.162;24.726;2023-04-03T06:26:50;13.70;;;8.67;;
7017;SDS011;3549;42.162;24.726;2023-04-03T06:29:16;13.10;;;7.20;;
7017;SDS011;3549;42.162;24.726;2023-04-03T06:31:42;9.67;;;6.87;;
7017;SDS011;3549;42.162;24.726;2023-04-03T06:34:07;14.80;;;6.97;;
7017;SDS011;3549;42.162;24.726;2023-04-03T06:36:33;12.97;;;7.17;;
7017;SDS011;3549;42.162;24.726;2023-04-03T06:38:59;12.03;;;7.47;;
7017;SDS011;3549;42.162;24.726;2023-04-03T06:41:26;11.43;;;6.77;;
7017;SDS011;3549;42.162;24.726;2023-04-03T06:43:51;13.80;;;7.67;;
7017;SDS011;3549;42.162;24.726;2023-04-03T06:46:18;19.53;;;10.13;;
7017;SDS011;3549;42.162;24.726;2023-04-03T06:48:46;22.27;;;12.43;;
7017;SDS011;3549;42.162;24.726;2023-04-03T06:51:17;21.23;;;11.73;;
7017;SDS011;3549;42.162;24.726;2023-04-03T06:53:44;13.50;;;8.47;;
7017;SDS011;3549;42.162;24.726;2023-04-03T06:56:11;12.93;;;8.00;;
7017;SDS011;3549;42.162;24.726;2023-04-03T06:58:36;15.80;;;10.90;;
7017;SDS011;3549;42.162;24.726;2023-04-03T07:01:02;15.53;;;9.70;;
7017;SDS011;3549;42.162;24.726;2023-04-03T07:03:27;8.93;;;6.37;;
7017;SDS011;3549;42.162;24.726;2023-04-03T07:05:53;10.03;;;6.50;;
7017;SDS011;3549;42.162;24.726;2023-04-03T07:08:18;10.53;;;6.53;;
7017;SDS011;3549;42.162;24.726;2023-04-03T07:10:44;9.67;;;5.97;;
7017;SDS011;3549;42.162;24.726;2023-04-03T07:13:09;9.50;;;5.53;;
7017;SDS011;3549;42.162;24.726;2023-04-03T07:15:35;7.30;;;4.97;;
7017;SDS011;3549;42.162;24.726;2023-04-03T07:18:02;7.83;;;4.97;;
7017;SDS011;3549;42.162;24.726;2023-04-03T07:20:27;8.03;;;4.90;;
7017;SDS011;3549;42.162;24.726;2023-04-03T07:22:53;7.43;;;5.00;;
7017;SDS011;3549;42.162;24.726;2023-04-03T07:25:18;10.60;;;4.73;;
7017;SDS011;3549;42.162;24.726;2023-04-03T07:27:44;8.53;;;5.00;;
7017;SDS011;3549;42.162;24.726;2023-04-03T07:30:09;11.07;;;5.67;;
7017;SDS011;3549;42.162;24.726;2023-04-03T07:32:35;15.57;;;8.07;;
7017;SDS011;3549;42.162;24.726;2023-04-03T07:35:01;9.83;;;6.40;;
7017;SDS011;3549;42.162;24.726;2023-04-03T07:37:27;13.70;;;7.77;;
7017;SDS011;3549;42.162;24.726;2023-04-03T07:39:52;14.30;;;7.20;;
7017;SDS011;3549;42.162;24.726;2023-04-03T07:42:27;22.00;;;11.47;;
7017;SDS011;3549;42.162;24.726;2023-04-03T07:44:53;16.20;;;8.70;;
7017;SDS011;3549;42.162;24.726;2023-04-03T07:47:19;18.80;;;10.53;;
7017;SDS011;3549;42.162;24.726;2023-04-03T07:49:45;14.97;;;8.97;;
7017;SDS011;3549;42.162;24.726;2023-04-03T07:52:11;15.30;;;7.97;;
7017;SDS011;3549;42.162;24.726;2023-04-03T07:54:36;14.50;;;7.77;;
7017;SDS011;3549;42.162;24.726;2023-04-03T07:57:02;12.50;;;7.40;;
7017;SDS011;3549;42.162;24.726;2023-04-03T07:59:28;10.37;;;6.60;;
7017;SDS011;3549;42.162;24.726;2023-04-03T08:01:53;12.47;;;6.87;;
7017;SDS011;3549;42.162;24.726;2023-04-03T08:04:19;11.57;;;6.33;;
7017;SDS011;3549;42.162;24.726;2023-04-03T08:06:44;10.33;;;5.63;;
7017;SDS011;3549;42.162;24.726;2023-04-03T08:09:10;12.73;;;5.73;;
7017;SDS011;3549;42.162;24.726;2023-04-03T08:11:35;9.03;;;6.13;;
7017;SDS011;3549;42.162;24.726;2023-04-03T08:14:03;10.67;;;7.03;;
7017;SDS011;3549;42.162;24.726;2023-04-03T08:16:28;9.63;;;6.60;;
7017;SDS011;3549;42.162;24.726;2023-04-03T08:18:54;10.20;;;6.27;;
7017;SDS011;3549;42.162;24.726;2023-04-03T08:21:20;7.43;;;5.30;;
7017;SDS011;3549;42.162;24.726;2023-04-03T08:23:47;9.53;;;5.60;;
7017;SDS011;3549;42.162;24.726;2023-04-03T08:26:16;9.33;;;5.67;;
7017;SDS011;3549;42.162;24.726;2023-04-03T08:28:43;10.83;;;5.90;;
7017;SDS011;3549;42.162;24.726;2023-04-03T08:31:10;7.50;;;5.10;;
7017;SDS011;3549;42.162;24.726;2023-04-03T08:33:38;11.73;;;5.97;;
7017;SDS011;3549;42.162;24.726;2023-04-03T08:36:05;9.43;;;5.73;;
7017;SDS011;3549;42.162;24.726;2023-04-03T08:38:32;13.20;;;5.63;;
7017;SDS011;3549;42.162;24.726;2023-04-03T08:43:39;11.70;;;6.17;;
7017;SDS011;3549;42.162;24.726;2023-04-03T08:46:22;10.97;;;6.60;;
7017;SDS011;3549;42.162;24.726;2023-04-03T08:48:52;11.73;;;7.17;;
7017;SDS011;3549;42.162;24.726;2023-04-03T08:51:23;14.00;;;7.00;;
7017;SDS011;3549;42.162;24.726;2023-04-03T08:53:56;19.30;;;8.90;;
7017;SDS011;3549;42.162;24.726;2023-04-03T08:56:27;18.83;;;9.40;;
7017;SDS011;3549;42.162;24.726;2023-04-03T08:58:59;15.87;;;9.33;;
7017;SDS011;3549;42.162;24.726;2023-04-03T09:03:58;14.53;;;7.80;;
7017;SDS011;3549;42.162;24.726;2023-04-03T09:06:26;14.00;;;7.13;;
7017;SDS011;3549;42.162;24.726;2023-04-03T09:12:03;10.40;;;6.97;;
7017;SDS011;3549;42.162;24.726;2023-04-03T09:17:42;7.90;;;4.63;;
7017;SDS011;3549;42.162;24.726;2023-04-03T09:20:39;8.43;;;5.07;;
7017;SDS011;3549;42.162;24.726;2023-04-03T09:25:49;7.53;;;4.90;;
7017;SDS011;3549;42.162;24.726;2023-04-03T09:28:19;12.00;;;4.87;;
7017;SDS011;3549;42.162;24.726;2023-04-03T09:30:45;12.87;;;5.30;;
7017;SDS011;3549;42.162;24.726;2023-04-03T09:33:10;9.30;;;5.40;;
7017;SDS011;3549;42.162;24.726;2023-04-03T09:35:37;8.73;;;5.50;;
7017;SDS011;3549;42.162;24.726;2023-04-03T09:40:38;11.90;;;6.07;;
7017;SDS011;3549;42.162;24.726;2023-04-03T09:43:25;8.97;;;5.10;;
7017;SDS011;3549;42.162;24.726;2023-04-03T09:45:53;8.30;;;4.80;;
7017;SDS011;3549;42.162;24.726;2023-04-03T09:48:20;5.67;;;3.80;;
7017;SDS011;3549;42.162;24.726;2023-04-03T09:56:26;6.63;;;3.70;;
7017;SDS011;3549;42.162;24.726;2023-04-03T10:09:30;5.93;;;3.80;;
7017;SDS011;3549;42.162;24.726;2023-04-03T10:14:56;8.30;;;4.40;;
7017;SDS011;3549;42.162;24.726;2023-04-03T10:20:25;8.37;;;4.60;;
7017;SDS011;3549;42.162;24.726;2023-04-03T10:23:03;7.00;;;4.90;;
7017;SDS011;3549;42.162;24.726;2023-04-03T10:25:40;8.70;;;4.70;;
7017;SDS011;3549;42.162;24.726;2023-04-03T10:44:19;11.60;;;7.07;;
7017;SDS011;3549;42.162;24.726;2023-04-03T10:54:39;9.63;;;5.40;;
7017;SDS011;3549;42.162;24.726;2023-04-03T10:57:10;7.77;;;5.40;;
7017;SDS011;3549;42.162;24.726;2023-04-03T10:59:38;8.63;;;5.73;;
7017;SDS011;3549;42.162;24.726;2023-04-03T11:02:07;11.57;;;6.23;;
7017;SDS011;3549;42.162;24.726;2023-04-03T11:04:41;9.27;;;5.60;;
7017;SDS011;3549;42.162;24.726;2023-04-03T11:07:15;7.67;;;5.57;;
7017;SDS011;3549;42.162;24.726;2023-04-03T11:09:44;7.77;;;4.90;;
7017;SDS011;3549;42.162;24.726;2023-04-03T11:14:46;9.47;;;5.73;;
7017;SDS011;3549;42.162;24.726;2023-04-03T11:17:19;11.30;;;6.80;;
7017;SDS011;3549;42.162;24.726;2023-04-03T11:20:00;10.80;;;6.47;;
7017;SDS011;3549;42.162;24.726;2023-04-03T11:22:27;9.63;;;6.53;;
7017;SDS011;3549;42.162;24.726;2023-04-03T11:36:08;9.53;;;6.13;;
7017;SDS011;3549;42.162;24.726;2023-04-03T11:38:38;8.67;;;6.40;;
7017;SDS011;3549;42.162;24.726;2023-04-03T11:41:08;8.27;;;6.13;;
7017;SDS011;3549;42.162;24.726;2023-04-03T11:46:42;9.80;;;6.30;;
7017;SDS011;3549;42.162;24.726;2023-04-03T11:57:49;9.07;;;6.47;;
7017;SDS011;3549;42.162;24.726;2023-04-03T12:05:55;15.50;;;10.10;;
7017;SDS011;3549;42.162;24.726;2023-04-03T12:16:24;10.60;;;7.93;;
7017;SDS011;3549;42.162;24.726;2023-04-03T12:21:24;15.90;;;10.57;;
7017;SDS011;3549;42.162;24.726;2023-04-03T12:26:45;18.07;;;11.60;;
7017;SDS011;3549;42.162;24.726;2023-04-03T12:45:58;19.17;;;11.10;;
7017;SDS011;3549;42.162;24.726;2023-04-03T12:48:30;18.30;;;10.67;;
7017;SDS011;3549;42.162;24.726;2023-04-03T12:50:59;16.13;;;11.27;;
7017;SDS011;3549;42.162;24.726;2023-04-03T12:53:26;13.60;;;9.33;;
7017;SDS011;3549;42.162;24.726;2023-04-03T12:55:55;15.87;;;11.30;;
7017;SDS011;3549;42.162;24.726;2023-04-03T12:58:24;12.80;;;8.63;;
7017;SDS011;3549;42.162;24.726;2023-04-03T13:01:04;14.63;;;9.27;;
7017;SDS011;3549;42.162;24.726;2023-04-03T13:03:37;10.93;;;8.57;;
7017;SDS011;3549;42.162;24.726;2023-04-03T13:06:05;12.97;;;9.37;;
7017;SDS011;3549;42.162;24.726;2023-04-03T13:08:31;13.77;;;9.83;;
7017;SDS011;3549;42.162;24.726;2023-04-03T13:13:27;16.10;;;11.90;;
7017;SDS011;3549;42.162;24.726;2023-04-03T13:15:53;17.97;;;13.97;;
7017;SDS011;3549;42.162;24.726;2023-04-03T13:21:05;13.77;;;8.63;;
7017;SDS011;3549;42.162;24.726;2023-04-03T13:23:36;12.80;;;8.70;;
7017;SDS011;3549;42.162;24.726;2023-04-03T13:26:05;17.23;;;11.57;;
7017;SDS011;3549;42.162;24.726;2023-04-03T13:28:32;15.57;;;10.60;;
7017;SDS011;3549;42.162;24.726;2023-04-03T13:31:06;20.07;;;14.53;;
7017;SDS011;3549;42.162;24.726;2023-04-03T13:33:35;16.37;;;10.77;;
7017;SDS011;3549;42.162;24.726;2023-04-03T13:36:16;20.97;;;13.03;;
7017;SDS011;3549;42.162;24.726;2023-04-03T13:38:45;19.80;;;13.30;;
7017;SDS011;3549;42.162;24.726;2023-04-03T13:43:51;22.07;;;14.83;;
7017;SDS011;3549;42.162;24.726;2023-04-03T13:53:43;22.33;;;15.93;;
7017;SDS011;3549;42.162;24.726;2023-04-03T13:56:19;25.87;;;17.17;;
7017;SDS011;3549;42.162;24.726;2023-04-03T14:01:48;25.53;;;16.90;;
7017;SDS011;3549;42.162;24.726;2023-04-03T14:07:13;29.43;;;17.17;;
7017;SDS011;3549;42.162;24.726;2023-04-03T14:09:41;25.33;;;15.13;;
7017;SDS011;3549;42.162;24.726;2023-04-03T14:12:30;22.63;;;14.53;;
7017;SDS011;3549;42.162;24.726;2023-04-03T14:14:59;20.30;;;12.73;;
7017;SDS011;3549;42.162;24.726;2023-04-03T14:17:26;22.73;;;14.03;;
7017;SDS011;3549;42.162;24.726;2023-04-03T14:19:53;21.43;;;13.97;;
7017;SDS011;3549;42.162;24.726;2023-04-03T14:22:27;21.73;;;13.70;;
7017;SDS011;3549;42.162;24.726;2023-04-03T14:24:56;21.07;;;13.50;;
7017;SDS011;3549;42.162;24.726;2023-04-03T14:27:23;27.43;;;18.17;;
7017;SDS011;3549;42.162;24.726;2023-04-03T14:29:52;30.93;;;18.37;;
7017;SDS011;3549;42.162;24.726;2023-04-03T14:32:22;30.97;;;19.37;;
7017;SDS011;3549;42.162;24.726;2023-04-03T14:34:49;28.27;;;16.33;;
7017;SDS011;3549;42.162;24.726;2023-04-03T14:37:17;24.97;;;15.50;;
7017;SDS011;3549;42.162;24.726;2023-04-03T14:39:48;24.50;;;15.87;;
7017;SDS011;3549;42.162;24.726;2023-04-03T14:42:19;28.77;;;17.13;;
7017;SDS011;3549;42.162;24.726;2023-04-03T14:44:50;25.60;;;17.07;;
7017;SDS011;3549;42.162;24.726;2023-04-03T14:47:17;30.70;;;19.07;;
7017;SDS011;3549;42.162;24.726;2023-04-03T14:49:46;22.40;;;14.80;;
7017;SDS011;3549;42.162;24.726;2023-04-03T14:52:20;27.10;;;15.87;;
7017;SDS011;3549;42.162;24.726;2023-04-03T14:54:46;24.67;;;16.17;;
7017;SDS011;3549;42.162;24.726;2023-04-03T14:57:13;25.03;;;15.90;;
7017;SDS011;3549;42.162;24.726;2023-04-03T14:59:39;27.20;;;16.00;;
7017;SDS011;3549;42.162;24.726;2023-04-03T15:02:11;28.87;;;17.43;;
7017;SDS011;3549;42.162;24.726;2023-04-03T15:05:00;25.87;;;16.13;;
7017;SDS011;3549;42.162;24.726;2023-04-03T15:07:32;24.10;;;15.93;;
7017;SDS011;3549;42.162;24.726;2023-04-03T15:10:09;28.07;;;17.90;;
7017;SDS011;3549;42.162;24.726;2023-04-03T15:12:39;29.03;;;18.40;;
7017;SDS011;3549;42.162;24.726;2023-04-03T15:15:05;29.07;;;17.50;;
7017;SDS011;3549;42.162;24.726;2023-04-03T15:17:34;35.13;;;19.90;;
7017;SDS011;3549;42.162;24.726;2023-04-03T15:20:00;32.03;;;18.33;;
7017;SDS011;3549;42.162;24.726;2023-04-03T15:22:26;30.47;;;18.50;;
7017;SDS011;3549;42.162;24.726;2023-04-03T15:24:52;32.07;;;19.80;;
7017;SDS011;3549;42.162;24.726;2023-04-03T15:27:17;33.47;;;19.70;;
7017;SDS011;3549;42.162;24.726;2023-04-03T15:29:43;32.53;;;19.23;;
7017;SDS011;3549;42.162;24.726;2023-04-03T15:32:10;33.50;;;19.70;;
7017;SDS011;3549;42.162;24.726;2023-04-03T15:34:36;32.80;;;19.60;;
7017;SDS011;3549;42.162;24.726;2023-04-03T15:37:03;33.33;;;18.43;;
7017;SDS011;3549;42.162;24.726;2023-04-03T15:39:29;34.10;;;18.67;;
7017;SDS011;3549;42.162;24.726;2023-04-03T15:41:55;31.27;;;17.13;;
7017;SDS011;3549;42.162;24.726;2023-04-03T15:44:21;24.87;;;14.83;;
7017;SDS011;3549;42.162;24.726;2023-04-03T15:46:47;30.33;;;17.00;;
7017;SDS011;3549;42.162;24.726;2023-04-03T15:49:17;26.30;;;14.43;;
7017;SDS011;3549;42.162;24.726;2023-04-03T15:51:47;27.60;;;16.33;;
7017;SDS011;3549;42.162;24.726;2023-04-03T15:54:12;24.47;;;13.63;;
7017;SDS011;3549;42.162;24.726;2023-04-03T15:56:38;28.50;;;16.70;;
7017;SDS011;3549;42.162;24.726;2023-04-03T15:59:03;27.33;;;15.13;;
7017;SDS011;3549;42.162;24.726;2023-04-03T16:01:28;29.40;;;16.80;;
7017;SDS011;3549;42.162;24.726;2023-04-03T16:03:54;52.23;;;29.63;;
7017;SDS011;3549;42.162;24.726;2023-04-03T16:06:20;30.10;;;18.93;;
7017;SDS011;3549;42.162;24.726;2023-04-03T16:08:46;29.37;;;15.20;;
7017;SDS011;3549;42.162;24.726;2023-04-03T16:11:16;26.60;;;17.17;;
7017;SDS011;3549;42.162;24.726;2023-04-03T16:13:41;28.33;;;16.33;;
7017;SDS011;3549;42.162;24.726;2023-04-03T16:16:07;31.80;;;16.53;;
7017;SDS011;3549;42.162;24.726;2023-04-03T16:18:33;28.40;;;16.33;;
7017;SDS011;3549;42.162;24.726;2023-04-03T16:21:00;23.10;;;12.97;;
7017;SDS011;3549;42.162;24.726;2023-04-03T16:23:25;25.37;;;14.10;;
7017;SDS011;3549;42.162;24.726;2023-04-03T16:25:51;25.43;;;14.50;;
7017;SDS011;3549;42.162;24.726;2023-04-03T16:28:17;31.27;;;18.03;;
7017;SDS011;3549;42.162;24.726;2023-04-03T16:30:43;30.17;;;17.07;;
7017;SDS011;3549;42.162;24.726;2023-04-03T16:33:11;28.63;;;16.90;;
7017;SDS011;3549;42.162;24.726;2023-04-03T16:35:37;32.17;;;20.63;;
7017;SDS011;3549;42.162;24.726;2023-04-03T16:38:03;31.60;;;17.47;;
7017;SDS011;3549;42.162;24.726;2023-04-03T16:40:28;30.07;;;17.53;;
7017;SDS011;3549;42.162;24.726;2023-04-03T16:42:54;26.07;;;14.77;;
7017;SDS011;3549;42.162;24.726;2023-04-03T16:45:20;26.50;;;15.57;;
7017;SDS011;3549;42.162;24.726;2023-04-03T16:47:45;29.10;;;15.83;;
7017;SDS011;3549;42.162;24.726;2023-04-03T16:50:11;29.20;;;16.87;;
7017;SDS011;3549;42.162;24.726;2023-04-03T16:52:37;31.50;;;17.93;;
7017;SDS011;3549;42.162;24.726;2023-04-03T16:55:06;26.53;;;14.20;;
7017;SDS011;3549;42.162;24.726;2023-04-03T16:57:33;54.20;;;30.13;;
7017;SDS011;3549;42.162;24.726;2023-04-03T16:59:59;19.87;;;12.63;;
7017;SDS011;3549;42.162;24.726;2023-04-03T17:02:24;21.07;;;12.57;;
7017;SDS011;3549;42.162;24.726;2023-04-03T17:04:50;21.83;;;11.40;;
7017;SDS011;3549;42.162;24.726;2023-04-03T17:07:17;21.40;;;11.80;;
7017;SDS011;3549;42.162;24.726;2023-04-03T17:09:46;21.50;;;11.90;;
7017;SDS011;3549;42.162;24.726;2023-04-03T17:12:12;22.03;;;12.57;;
7017;SDS011;3549;42.162;24.726;2023-04-03T17:14:38;27.97;;;14.73;;
7017;SDS011;3549;42.162;24.726;2023-04-03T17:17:03;26.40;;;13.40;;
7017;SDS011;3549;42.162;24.726;2023-04-03T17:19:29;22.13;;;11.73;;
7017;SDS011;3549;42.162;24.726;2023-04-03T17:21:55;20.43;;;11.30;;